Time;durP1;ratioP1;P1;durP2;ratioP2;P2;SDS_P1;SDS_P2;PMS_P1;PMS_P2;Temp;Humidity;BMP_temperature;BMP_pressure;BME280_temperature;BME280_humidity;BME280_pressure;Samples;Min_cycle;Max_cycle;Signal;HPM_P1;HPM_P2
2023/03/16 00:00:35;;;;;;;3.07;2.77;;;22.10;52.90;;;;;;5030498;28;20467;-82
2023/03/16 00:03:06;;;;;;;3.40;2.50;;;22.10;52.90;;;;;;5031930;28;20517;-82
2023/03/16 00:05:34;;;;;;;5.87;3.07;;;22.10;52.90;;;;;;5030079;28;20469;-82
2023/03/16 00:08:02;;;;;;;4.00;3.20;;;22.10;52.90;;;;;;5021252;28;20454;-82
2023/03/16 00:10:31;;;;;;;3.23;2.77;;;22.10;52.90;;;;;;5034227;28;21299;-82
2023/03/16 00:13:01;;;;;;;3.17;2.87;;;22.10;52.90;;;;;;5033683;28;20825;-82
2023/03/16 00:15:32;;;;;;;3.17;2.87;;;22.10;52.90;;;;;;5030255;28;20490;-82
2023/03/16 00:18:02;;;;;;;2.87;2.67;;;22.10;52.90;;;;;;5016030;28;20516;-82
2023/03/16 00:20:30;;;;;;;3.37;3.07;;;22.10;52.90;;;;;;5039825;28;20504;-82
2023/03/16 00:22:58;;;;;;;2.47;2.27;;;22.10;52.90;;;;;;5020086;28;20504;-82
2023/03/16 00:25:26;;;;;;;3.30;2.77;;;22.10;52.80;;;;;;5035518;28;20517;-82
2023/03/16 00:27:55;;;;;;;3.13;2.93;;;22.10;52.80;;;;;;5036691;28;20971;-82
2023/03/16 00:30:23;;;;;;;2.63;2.53;;;22.10;52.80;;;;;;5033943;28;20544;-82
2023/03/16 00:32:52;;;;;;;2.33;2.13;;;22.10;52.80;;;;;;5038964;28;20472;-82
2023/03/16 00:35:22;;;;;;;2.80;2.60;;;22.10;52.80;;;;;;5034420;28;20458;-81
2023/03/16 00:37:50;;;;;;;2.93;2.60;;;22.10;52.70;;;;;;5034845;28;20946;-81
2023/03/16 00:40:18;;;;;;;2.50;2.30;;;22.10;52.70;;;;;;5025571;28;20466;-81
2023/03/16 00:42:47;;;;;;;3.00;2.70;;;22.10;52.70;;;;;;5013812;28;20574;-82
2023/03/16 00:45:15;;;;;;;2.87;2.67;;;22.10;52.60;;;;;;5032027;28;20474;-82
2023/03/16 00:47:44;;;;;;;3.43;2.43;;;22.10;52.60;;;;;;5013196;28;20465;-82
2023/03/16 00:50:13;;;;;;;3.90;3.00;;;22.10;52.60;;;;;;5014714;28;21017;-82
2023/03/16 00:52:43;;;;;;;2.50;2.30;;;22.10;52.50;;;;;;5032628;28;20514;-82
2023/03/16 00:55:12;;;;;;;2.33;2.10;;;22.10;52.50;;;;;;5031058;28;20458;-82
2023/03/16 00:57:40;;;;;;;2.33;2.13;;;22.10;52.50;;;;;;5032471;28;21107;-82
2023/03/16 01:00:14;;;;;;;2.40;2.20;;;22.10;52.50;;;;;;5029975;28;20517;-82
2023/03/16 01:02:44;;;;;;;2.20;2.00;;;22.10;52.50;;;;;;5012437;28;20880;-82
2023/03/16 01:05:13;;;;;;;2.40;2.20;;;22.10;52.40;;;;;;5012216;28;20455;-82
2023/03/16 01:07:44;;;;;;;2.30;2.20;;;22.10;52.40;;;;;;5030843;28;20455;-82
2023/03/16 01:10:13;;;;;;;2.07;1.97;;;22.10;52.40;;;;;;5034108;28;20464;-82
2023/03/16 01:12:44;;;;;;;5.00;2.50;;;22.10;52.40;;;;;;5056435;28;20594;-82
2023/03/16 01:15:12;;;;;;;2.67;2.47;;;22.10;52.40;;;;;;5025908;28;20460;-83
2023/03/16 01:17:40;;;;;;;2.13;2.03;;;22.10;52.30;;;;;;5034498;28;20469;-82
2023/03/16 01:20:13;;;;;;;2.70;2.47;;;22.10;52.30;;;;;;5042114;28;20500;-82
2023/03/16 01:22:42;;;;;;;2.10;2.00;;;22.10;52.30;;;;;;5045819;28;20532;-82
2023/03/16 01:25:12;;;;;;;2.23;1.70;;;22.00;52.30;;;;;;5063215;28;20469;-82
2023/03/16 01:27:42;;;;;;;2.63;2.43;;;22.00;52.30;;;;;;5044117;28;20561;-82
2023/03/16 01:30:12;;;;;;;2.37;2.27;;;22.00;52.20;;;;;;5067804;28;20488;-82
2023/03/16 01:32:41;;;;;;;2.20;2.10;;;22.00;52.20;;;;;;5052310;28;20548;-82
2023/03/16 01:35:13;;;;;;;1.90;1.80;;;22.00;52.20;;;;;;5067775;28;20459;-82
2023/03/16 01:37:42;;;;;;;2.07;1.97;;;22.00;52.20;;;;;;5062989;28;20966;-82
2023/03/16 01:40:16;;;;;;;2.27;2.13;;;22.00;52.20;;;;;;5049694;28;20586;-82
2023/03/16 01:42:46;;;;;;;1.97;1.87;;;22.00;52.20;;;;;;5051817;28;21022;-82
2023/03/16 01:45:52;;;;;;;2.40;2.30;;;22.00;52.20;;;;;;5047148;28;20554;-82
2023/03/16 01:48:24;;;;;;;2.57;2.37;;;22.00;52.20;;;;;;5030021;28;21213;-82
2023/03/16 01:50:53;;;;;;;2.00;1.90;;;22.00;52.10;;;;;;5053045;28;21015;-82
2023/03/16 01:53:25;;;;;;;2.40;2.20;;;22.00;52.10;;;;;;5049937;28;20460;-82
2023/03/16 01:55:54;;;;;;;2.60;2.40;;;22.00;52.10;;;;;;5052176;28;20806;-82
2023/03/16 01:58:23;;;;;;;2.30;2.20;;;22.00;52.10;;;;;;5051791;28;20454;-82
2023/03/16 02:00:51;;;;;;;2.43;2.20;;;22.00;52.10;;;;;;5066216;28;20495;-82
2023/03/16 02:03:23;;;;;;;2.03;1.93;;;22.00;52.00;;;;;;5048828;28;20547;-82
2023/03/16 02:06:09;;;;;;;2.33;2.13;;;22.00;52.00;;;;;;5050772;28;20465;-82
2023/03/16 02:08:45;;;;;;;2.37;2.27;;;22.00;52.00;;;;;;5051163;28;20460;-82
2023/03/16 02:11:16;;;;;;;2.20;2.10;;;22.00;52.00;;;;;;5067690;28;20502;-82
2023/03/16 02:14:10;;;;;;;1.80;1.70;;;22.00;52.00;;;;;;5057368;28;20465;-82
2023/03/16 02:16:39;;;;;;;2.30;2.20;;;22.00;52.00;;;;;;5070045;28;20461;-82
2023/03/16 02:19:12;;;;;;;2.37;2.20;;;22.00;51.90;;;;;;5054836;28;20793;-82
2023/03/16 02:21:47;;;;;;;2.13;1.93;;;22.00;51.90;;;;;;5055418;28;20547;-82
2023/03/16 02:24:18;;;;;;;1.97;1.87;;;22.00;51.90;;;;;;5064274;28;20498;-82
2023/03/16 02:26:52;;;;;;;2.20;2.10;;;22.00;51.90;;;;;;5065896;28;20461;-82
2023/03/16 02:29:42;;;;;;;4.43;2.40;;;22.00;51.90;;;;;;5066121;28;20472;-82
2023/03/16 02:32:19;;;;;;;2.33;2.10;;;21.90;51.90;;;;;;5058421;28;20486;-82
2023/03/16 02:34:47;;;;;;;2.37;2.17;;;21.90;51.80;;;;;;5046333;28;20457;-81
2023/03/16 02:37:15;;;;;;;2.00;1.90;;;21.90;51.90;;;;;;5053174;28;20463;-82
2023/03/16 02:39:44;;;;;;;2.10;2.00;;;21.90;51.90;;;;;;5055701;28;20454;-82
2023/03/16 02:42:20;;;;;;;2.30;2.10;;;21.90;51.90;;;;;;5053741;28;20469;-82
2023/03/16 02:44:56;;;;;;;2.17;2.07;;;21.90;51.80;;;;;;5053957;28;20529;-82
2023/03/16 02:47:37;;;;;;;2.40;2.30;;;21.90;51.80;;;;;;5054707;28;21051;-82
2023/03/16 02:50:23;;;;;;;2.40;2.30;;;21.90;51.80;;;;;;5055158;28;20449;-81
2023/03/16 02:52:51;;;;;;;2.63;2.43;;;21.90;51.70;;;;;;5053897;28;20471;-82
2023/03/16 02:55:21;;;;;;;1.90;1.80;;;21.90;51.70;;;;;;5073287;28;20940;-81
2023/03/16 02:57:51;;;;;;;2.03;1.93;;;21.90;51.70;;;;;;5053974;28;20566;-82
2023/03/16 03:00:26;;;;;;;2.07;1.97;;;21.90;51.70;;;;;;5072711;28;20443;-82
2023/03/16 03:02:54;;;;;;;2.20;2.10;;;21.90;51.70;;;;;;5072133;28;20548;-82
2023/03/16 03:05:23;;;;;;;2.43;2.23;;;21.90;51.70;;;;;;5054258;28;20984;-82
2023/03/16 03:07:51;;;;;;;2.43;2.33;;;21.90;51.70;;;;;;5051350;28;20465;-82
2023/03/16 03:10:20;;;;;;;2.20;2.10;;;21.90;51.70;;;;;;5072747;28;20457;-81
2023/03/16 03:12:49;;;;;;;2.10;2.00;;;21.90;51.70;;;;;;5071063;28;20460;-82
2023/03/16 03:15:18;;;;;;;1.77;1.67;;;21.90;51.70;;;;;;5054697;28;20459;-81
2023/03/16 03:18:00;;;;;;;1.93;1.83;;;21.80;51.60;;;;;;5068434;28;20986;-81
2023/03/16 03:20:31;;;;;;;2.10;1.93;;;21.90;51.60;;;;;;5071035;28;20464;-82
2023/03/16 03:22:59;;;;;;;2.30;2.20;;;21.90;51.60;;;;;;5054776;28;20488;-82
2023/03/16 03:25:27;;;;;;;2.00;1.90;;;21.80;51.60;;;;;;5075233;28;20477;-82
2023/03/16 03:27:56;;;;;;;2.07;1.97;;;21.80;51.60;;;;;;5065743;28;20944;-82
2023/03/16 03:30:25;;;;;;;2.00;1.90;;;21.80;51.60;;;;;;5053508;28;20554;-82
2023/03/16 03:32:55;;;;;;;2.10;2.00;;;21.80;51.60;;;;;;5054369;28;20465;-81
2023/03/16 03:35:25;;;;;;;1.87;1.77;;;21.80;51.60;;;;;;5049292;28;20490;-82
2023/03/16 03:37:54;;;;;;;2.30;2.20;;;21.80;51.60;;;;;;5054713;28;20548;-82
2023/03/16 03:40:22;;;;;;;2.33;2.20;;;21.90;51.60;;;;;;5052890;28;20445;-82
2023/03/16 03:42:57;;;;;;;2.13;2.03;;;21.80;51.50;;;;;;5053995;28;20460;-82
2023/03/16 03:45:26;;;;;;;2.67;2.47;;;21.80;51.50;;;;;;5054398;28;20479;-82
2023/03/16 03:47:55;;;;;;;1.73;1.63;;;21.80;51.50;;;;;;5070735;28;20496;-82
2023/03/16 03:50:25;;;;;;;2.47;2.30;;;21.80;51.50;;;;;;5051417;28;20556;-81
2023/03/16 03:53:35;;;;;;;2.10;2.00;;;21.80;51.40;;;;;;5049451;28;20453;-82
2023/03/16 03:56:26;;;;;;;2.57;2.37;;;21.80;51.40;;;;;;5052624;28;20465;-82
2023/03/16 03:58:54;;;;;;;2.10;2.00;;;21.80;51.40;;;;;;5046285;28;20797;-82
2023/03/16 04:01:37;;;;;;;2.50;2.30;;;21.80;51.40;;;;;;5056388;28;20449;-82
2023/03/16 04:04:06;;;;;;;2.10;2.00;;;21.80;51.40;;;;;;5053030;28;20483;-82
2023/03/16 04:06:37;;;;;;;2.03;1.93;;;21.80;51.40;;;;;;5049304;28;20817;-82
2023/03/16 04:09:06;;;;;;;2.10;2.00;;;21.80;51.40;;;;;;5068878;28;20453;-82
2023/03/16 04:11:34;;;;;;;2.20;2.10;;;21.80;51.30;;;;;;5041982;28;20464;-82
2023/03/16 04:14:02;;;;;;;2.20;2.00;;;21.80;51.30;;;;;;5051896;28;20843;-82
2023/03/16 04:16:32;;;;;;;2.00;1.90;;;21.80;51.30;;;;;;5052491;28;21579;-82
2023/03/16 04:19:03;;;;;;;1.80;1.70;;;21.80;51.30;;;;;;5049585;28;20468;-82
2023/03/16 04:21:31;;;;;;;1.87;1.73;;;21.80;51.30;;;;;;5049272;28;20944;-82
2023/03/16 04:24:03;;;;;;;2.10;2.00;;;21.80;51.30;;;;;;5075049;28;20516;-82
2023/03/16 04:26:35;;;;;;;2.13;2.03;;;21.80;51.30;;;;;;5075743;28;20488;-82
2023/03/16 04:29:04;;;;;;;2.07;1.70;;;21.80;51.30;;;;;;5035721;28;20464;-82
2023/03/16 04:31:34;;;;;;;1.90;1.80;;;21.80;51.30;;;;;;5041577;28;20907;-82
2023/03/16 04:34:02;;;;;;;1.97;1.87;;;21.80;51.30;;;;;;5053408;28;20463;-81
2023/03/16 04:36:33;;;;;;;2.43;2.23;;;21.80;51.30;;;;;;5058966;28;20840;-82
2023/03/16 04:39:04;;;;;;;2.17;1.97;;;21.80;51.30;;;;;;5037861;28;20466;-81
2023/03/16 04:41:42;;;;;;;2.37;2.20;;;21.80;51.20;;;;;;5074629;28;20449;-82
2023/03/16 04:44:16;;;;;;;2.10;2.00;;;21.80;51.20;;;;;;5038944;28;20861;-82
2023/03/16 04:46:44;;;;;;;2.00;1.90;;;21.80;51.20;;;;;;5051794;28;20457;-82
2023/03/16 04:49:13;;;;;;;2.10;2.00;;;21.80;51.20;;;;;;5051296;28;20451;-82
2023/03/16 04:51:45;;;;;;;1.90;1.80;;;21.80;51.20;;;;;;5053602;28;20818;-82
2023/03/16 04:54:19;;;;;;;2.33;2.13;;;21.80;51.20;;;;;;5052468;28;20458;-82
2023/03/16 04:56:53;;;;;;;2.00;1.90;;;21.80;51.10;;;;;;5065709;28;20463;-82
2023/03/16 04:59:33;;;;;;;2.17;2.07;;;21.80;51.20;;;;;;5050911;28;20969;-82
2023/03/16 05:02:24;;;;;;;1.97;1.87;;;21.80;51.10;;;;;;5064382;28;20492;-81
2023/03/16 05:05:17;;;;;;;1.87;1.77;;;21.80;51.10;;;;;;5071923;28;21176;-82
2023/03/16 05:07:45;;;;;;;2.10;2.00;;;21.80;51.10;;;;;;5053155;28;20551;-81
2023/03/16 05:10:18;;;;;;;2.47;2.00;;;21.80;51.10;;;;;;5053921;28;20896;-81
2023/03/16 05:12:47;;;;;;;1.90;1.80;;;21.80;51.10;;;;;;5046327;28;20465;-81
2023/03/16 05:15:15;;;;;;;1.73;1.63;;;21.80;51.10;;;;;;5053889;28;20555;-82
2023/03/16 05:17:47;;;;;;;2.23;2.03;;;21.80;51.10;;;;;;5036009;28;20473;-82
2023/03/16 05:20:15;;;;;;;2.00;1.90;;;21.80;51.10;;;;;;5073922;28;20467;-82
2023/03/16 05:22:52;;;;;;;1.63;1.53;;;21.80;51.10;;;;;;5053386;28;20496;-81
2023/03/16 05:25:39;;;;;;;2.40;2.30;;;21.80;51.00;;;;;;5054917;28;20491;-81
2023/03/16 05:28:42;;;;;;;1.87;1.77;;;21.80;51.10;;;;;;5057278;28;20521;-82
2023/03/16 05:31:15;;;;;;;2.03;1.93;;;21.70;51.10;;;;;;5053787;28;20483;-81
2023/03/16 05:33:49;;;;;;;1.50;1.40;;;21.70;51.10;;;;;;5060147;28;20515;-81
2023/03/16 05:36:20;;;;;;;2.00;1.90;;;21.80;51.10;;;;;;5054073;28;20492;-82
2023/03/16 05:38:52;;;;;;;2.17;1.97;;;21.70;51.10;;;;;;5049908;28;20526;-82
2023/03/16 05:41:32;;;;;;;2.17;1.90;;;21.80;51.10;;;;;;5054897;28;20471;-81
2023/03/16 05:44:12;;;;;;;1.93;1.83;;;21.70;51.10;;;;;;5054409;28;20486;-81
2023/03/16 05:46:57;;;;;;;2.13;2.00;;;21.80;51.00;;;;;;5069794;28;20493;-81
2023/03/16 05:49:26;;;;;;;2.03;1.70;;;21.80;51.00;;;;;;5048981;28;20500;-81
2023/03/16 05:51:55;;;;;;;1.80;1.70;;;21.80;51.00;;;;;;5050060;28;20467;-81
2023/03/16 05:54:23;;;;;;;2.00;1.80;;;21.80;51.00;;;;;;5052436;28;20500;-81
2023/03/16 05:56:54;;;;;;;1.87;1.77;;;21.80;51.00;;;;;;5050893;28;20466;-82
2023/03/16 05:59:24;;;;;;;1.77;1.67;;;21.80;51.00;;;;;;5075148;28;20476;-82
2023/03/16 06:01:56;;;;;;;1.77;1.67;;;21.80;51.00;;;;;;5052065;28;20554;-82
2023/03/16 06:04:26;;;;;;;2.10;2.00;;;21.80;51.00;;;;;;5058844;28;20524;-80
2023/03/16 06:06:54;;;;;;;2.23;2.13;;;21.80;51.10;;;;;;5043403;28;20564;-82
2023/03/16 06:09:26;;;;;;;2.17;2.07;;;21.80;51.30;;;;;;5046011;28;20465;-82
2023/03/16 06:12:27;;;;;;;2.60;1.90;;;21.80;51.30;;;;;;5025872;28;21784;-83
2023/03/16 06:14:57;;;;;;;2.07;1.97;;;21.80;51.40;;;;;;5064486;28;21059;-83
2023/03/16 06:17:27;;;;;;;4.03;1.97;;;21.80;51.60;;;;;;5071953;28;20461;-83
2023/03/16 06:22:56;;;;;;;6.77;3.03;;;21.80;51.90;;;;;;5050901;28;21288;-83
2023/03/16 06:25:25;;;;;;;4.47;2.60;;;21.80;52.10;;;;;;5052223;28;20484;-82
2023/03/16 06:27:57;;;;;;;2.57;2.13;;;21.80;52.20;;;;;;5055987;28;21330;-82
2023/03/16 06:30:26;;;;;;;2.27;2.17;;;21.70;52.20;;;;;;5050914;28;20467;-83
2023/03/16 06:33:07;;;;;;;3.30;2.23;;;21.70;52.30;;;;;;5046430;28;20820;-82
2023/03/16 06:35:37;;;;;;;2.53;2.33;;;21.70;52.30;;;;;;5029827;28;20472;-82
2023/03/16 06:38:32;;;;;;;6.63;2.80;;;21.70;52.30;;;;;;5044453;28;20465;-82
2023/03/16 06:41:11;;;;;;;5.93;3.30;;;21.70;52.30;;;;;;5049670;28;20888;-82
2023/03/16 06:43:44;;;;;;;3.47;2.33;;;21.70;52.30;;;;;;5049127;28;20565;-82
2023/03/16 06:46:52;;;;;;;2.80;2.00;;;21.70;52.40;;;;;;5053151;28;20973;-82
2023/03/16 06:49:55;;;;;;;3.13;2.47;;;21.70;52.40;;;;;;5055847;28;20468;-83
2023/03/16 06:52:26;;;;;;;8.37;2.13;;;21.70;52.40;;;;;;5043654;28;20467;-83
2023/03/16 06:54:59;;;;;;;4.30;2.10;;;21.70;52.40;;;;;;5063218;28;20545;-82
2023/03/16 06:57:31;;;;;;;4.77;2.20;;;21.70;52.40;;;;;;5046942;28;21146;-83
2023/03/16 07:00:03;;;;;;;4.57;2.53;;;21.70;52.50;;;;;;5031933;28;20825;-82
2023/03/16 07:02:39;;;;;;;7.43;2.50;;;21.80;52.50;;;;;;5047842;28;20468;-82
2023/03/16 07:05:11;;;;;;;2.30;2.10;;;21.80;52.40;;;;;;5060745;28;20470;-82
2023/03/16 07:07:41;;;;;;;3.20;2.40;;;21.80;52.40;;;;;;5056907;28;20486;-82
2023/03/16 07:10:18;;;;;;;5.83;2.47;;;21.80;52.40;;;;;;5055894;28;20460;-82
2023/03/16 07:13:00;;;;;;;4.03;2.50;;;21.90;52.30;;;;;;5033517;28;21049;-83
2023/03/16 07:15:30;;;;;;;3.73;2.20;;;21.90;52.20;;;;;;5037780;28;20970;-83
2023/03/16 07:17:58;;;;;;;3.80;2.80;;;21.90;52.20;;;;;;5048100;28;20882;-83
2023/03/16 07:20:30;;;;;;;3.80;2.53;;;21.90;52.10;;;;;;5051994;28;20481;-82
2023/03/16 07:23:12;;;;;;;2.60;2.40;;;21.90;52.10;;;;;;5046190;28;20495;-83
2023/03/16 07:25:43;;;;;;;4.13;2.40;;;21.90;52.10;;;;;;5055734;28;20530;-82
2023/03/16 07:28:12;;;;;;;5.87;2.80;;;21.90;52.10;;;;;;5053860;28;20468;-82
2023/03/16 07:30:45;;;;;;;2.13;1.57;;;21.90;52.10;;;;;;5033483;28;20532;-82
2023/03/16 07:33:33;;;;;;;2.73;2.53;;;21.90;52.10;;;;;;5053144;28;20465;-83
2023/03/16 07:36:05;;;;;;;3.73;2.17;;;21.90;52.10;;;;;;5034925;28;20473;-82
2023/03/16 07:38:39;;;;;;;2.90;2.23;;;21.80;52.10;;;;;;5035508;28;20465;-82
2023/03/16 07:41:08;;;;;;;2.57;2.20;;;21.80;52.10;;;;;;5039860;28;20480;-82
2023/03/16 07:43:37;;;;;;;2.50;2.30;;;21.80;52.10;;;;;;5035553;28;20450;-83
2023/03/16 07:46:07;;;;;;;2.50;1.90;;;21.80;52.10;;;;;;5052946;28;20527;-82
2023/03/16 07:48:50;;;;;;;3.07;2.20;;;21.80;52.10;;;;;;5033452;28;20957;-83
2023/03/16 07:51:18;;;;;;;3.00;2.70;;;21.80;52.10;;;;;;5034251;28;20473;-83
2023/03/16 07:53:50;;;;;;;3.20;2.20;;;21.80;52.00;;;;;;5042801;28;20556;-83
2023/03/16 07:56:24;;;;;;;3.70;2.60;;;21.80;52.00;;;;;;5056178;28;20468;-82
2023/03/16 07:58:56;;;;;;;5.10;2.30;;;21.80;52.00;;;;;;5054754;28;21004;-83
2023/03/16 08:01:26;;;;;;;2.60;2.40;;;21.80;52.00;;;;;;5052262;28;20567;-82
2023/03/16 08:03:54;;;;;;;2.37;2.17;;;21.80;52.00;;;;;;5043024;28;20461;-82
2023/03/16 08:06:24;;;;;;;2.40;2.20;;;21.80;51.90;;;;;;5051180;28;20538;-82
2023/03/16 08:08:52;;;;;;;1.90;1.80;;;21.90;51.90;;;;;;5068999;28;20467;-82
2023/03/16 08:11:30;;;;;;;2.30;2.07;;;21.90;51.80;;;;;;5054813;28;20547;-82
2023/03/16 08:14:04;;;;;;;2.70;2.00;;;21.90;51.80;;;;;;5049656;28;20470;-81
2023/03/16 08:16:57;;;;;;;2.23;1.97;;;21.90;51.80;;;;;;5038145;28;20957;-78
2023/03/16 08:19:27;;;;;;;2.20;2.00;;;21.90;51.80;;;;;;5036689;28;20472;-79
2023/03/16 08:21:59;;;;;;;1.90;1.73;;;21.90;51.80;;;;;;5052114;28;20463;-78
2023/03/16 08:24:37;;;;;;;2.03;1.73;;;22.00;51.80;;;;;;5048029;28;20488;-78
2023/03/16 08:27:07;;;;;;;2.00;1.70;;;22.00;51.80;;;;;;5059651;28;20489;-78
2023/03/16 08:29:37;;;;;;;2.37;2.17;;;22.00;51.80;;;;;;5054111;28;20493;-78
2023/03/16 08:32:09;;;;;;;1.70;1.60;;;22.10;51.80;;;;;;5054634;28;20460;-79
2023/03/16 08:34:42;;;;;;;2.27;2.10;;;22.10;51.70;;;;;;5070992;28;20510;-78
2023/03/16 08:37:11;;;;;;;1.77;1.67;;;22.20;51.60;;;;;;5054524;28;20506;-79
2023/03/16 08:39:40;;;;;;;1.93;1.83;;;22.20;51.50;;;;;;5053576;28;20453;-81
2023/03/16 08:42:14;;;;;;;2.40;2.20;;;22.20;51.40;;;;;;5054006;28;21357;-80
2023/03/16 08:44:46;;;;;;;1.70;1.60;;;22.20;51.40;;;;;;5064494;28;20950;-81
2023/03/16 08:47:16;;;;;;;1.90;1.80;;;22.30;51.30;;;;;;5053728;28;20476;-80
2023/03/16 08:49:45;;;;;;;2.47;2.27;;;22.30;51.30;;;;;;5050276;28;20491;-80
2023/03/16 08:52:15;;;;;;;2.00;1.90;;;22.30;51.30;;;;;;5048467;28;20515;-80
2023/03/16 08:54:43;;;;;;;2.20;2.10;;;22.30;51.20;;;;;;5071403;28;20437;-79
2023/03/16 08:57:28;;;;;;;1.73;1.63;;;22.30;51.20;;;;;;5057574;28;20453;-80
2023/03/16 08:59:56;;;;;;;1.60;1.50;;;22.30;51.20;;;;;;5071923;28;20945;-78
2023/03/16 09:02:26;;;;;;;2.47;2.10;;;22.30;51.20;;;;;;5072205;28;20545;-78
2023/03/16 09:04:55;;;;;;;2.20;1.80;;;22.40;51.10;;;;;;5076959;28;20544;-79
2023/03/16 09:07:23;;;;;;;1.53;1.43;;;22.40;51.00;;;;;;5084402;28;20983;-78
2023/03/16 09:09:51;;;;;;;2.30;1.83;;;22.40;51.10;;;;;;5063786;28;20458;-79
2023/03/16 09:12:21;;;;;;;2.10;2.00;;;22.40;51.00;;;;;;5051597;28;20453;-79
2023/03/16 09:14:49;;;;;;;3.07;2.77;;;22.40;51.10;;;;;;5052329;28;20459;-79
2023/03/16 09:17:17;;;;;;;1.80;1.70;;;22.40;51.00;;;;;;5052494;28;20481;-79
2023/03/16 09:19:47;;;;;;;2.80;1.87;;;22.50;51.00;;;;;;5055962;28;20453;-80
2023/03/16 09:22:19;;;;;;;1.83;1.57;;;22.50;51.00;;;;;;5064474;28;20797;-81
2023/03/16 09:24:48;;;;;;;2.00;1.90;;;22.50;51.00;;;;;;5069955;28;20482;-78
2023/03/16 09:27:17;;;;;;;1.80;1.70;;;22.50;51.00;;;;;;5070723;28;20485;-82
2023/03/16 09:29:47;;;;;;;2.20;2.00;;;22.50;51.00;;;;;;5070616;28;20500;-81
2023/03/16 09:32:16;;;;;;;1.80;1.70;;;22.50;50.90;;;;;;5063792;28;20454;-79
2023/03/16 09:34:44;;;;;;;1.60;1.50;;;22.50;50.90;;;;;;5054693;28;20484;-80
2023/03/16 09:37:15;;;;;;;4.00;1.80;;;22.50;50.90;;;;;;5056925;28;20466;-80
2023/03/16 09:39:44;;;;;;;2.33;1.60;;;22.50;50.80;;;;;;5053059;28;20458;-82
2023/03/16 09:42:18;;;;;;;1.93;1.83;;;22.50;50.90;;;;;;5064805;28;20450;-81
2023/03/16 09:44:57;;;;;;;1.63;1.53;;;22.60;51.00;;;;;;5063770;28;20574;-81
2023/03/16 09:47:29;;;;;;;2.30;1.70;;;22.60;50.90;;;;;;5061095;28;20576;-82
2023/03/16 09:50:00;;;;;;;1.80;1.70;;;22.70;50.90;;;;;;5047926;28;20806;-79
2023/03/16 09:52:39;;;;;;;2.27;2.10;;;22.80;50.90;;;;;;5064349;28;20812;-81
2023/03/16 09:55:45;;;;;;;1.60;1.50;;;22.80;50.80;;;;;;5058105;28;20450;-82
2023/03/16 09:58:51;;;;;;;1.70;1.60;;;22.90;50.70;;;;;;5064511;28;20459;-82
2023/03/16 10:04:58;;;;;;;1.50;1.40;;;23.00;50.60;;;;;;5050400;28;20465;-79
2023/03/16 10:07:41;;;;;;;1.60;1.50;;;23.10;50.60;;;;;;5058930;28;20477;-80
2023/03/16 10:10:25;;;;;;;1.70;1.60;;;23.10;50.50;;;;;;5061762;28;20502;-81
2023/03/16 10:13:22;;;;;;;1.57;1.47;;;23.10;50.40;;;;;;5056982;28;20501;-83
2023/03/16 10:16:01;;;;;;;1.70;1.60;;;23.10;50.40;;;;;;5045307;28;20782;-80
2023/03/16 10:18:34;;;;;;;2.03;1.60;;;23.10;50.40;;;;;;5051597;28;20459;-80
2023/03/16 10:21:03;;;;;;;1.40;1.30;;;23.10;50.50;;;;;;5071391;28;20442;-81
2023/03/16 10:23:35;;;;;;;1.83;1.73;;;23.20;50.30;;;;;;5050692;28;20537;-81
2023/03/16 10:26:12;;;;;;;1.77;1.67;;;23.20;50.30;;;;;;5066075;28;20470;-82
2023/03/16 10:28:41;;;;;;;1.80;1.70;;;23.20;50.30;;;;;;5067732;28;20474;-81
2023/03/16 10:31:11;;;;;;;2.40;2.10;;;23.20;50.30;;;;;;5069452;28;20473;-81
2023/03/16 10:33:40;;;;;;;1.43;1.33;;;23.20;50.20;;;;;;5069126;28;21015;-80
2023/03/16 10:36:15;;;;;;;1.40;1.30;;;23.20;50.30;;;;;;5052693;28;20444;-83
2023/03/16 10:38:48;;;;;;;1.70;1.60;;;23.30;50.20;;;;;;5044132;28;20479;-84
2023/03/16 10:41:27;;;;;;;1.87;1.77;;;23.30;50.20;;;;;;5072522;28;20538;-82
2023/03/16 10:43:58;;;;;;;1.47;1.37;;;23.40;50.10;;;;;;5056129;28;20465;-81
2023/03/16 10:46:28;;;;;;;1.67;1.67;;;23.40;50.10;;;;;;5060518;28;20442;-80
2023/03/16 10:49:00;;;;;;;1.40;1.33;;;23.40;50.10;;;;;;5072618;28;20468;-83
2023/03/16 10:51:30;;;;;;;1.63;1.53;;;23.40;50.10;;;;;;5073873;28;20446;-79
2023/03/16 10:54:10;;;;;;;1.40;1.30;;;23.40;50.10;;;;;;5073377;28;20568;-79
2023/03/16 10:56:39;;;;;;;2.20;2.00;;;23.50;49.90;;;;;;5073475;28;20474;-80
2023/03/16 10:59:30;;;;;;;1.80;1.70;;;23.50;49.70;;;;;;5073172;28;20477;-88
2023/03/16 11:02:00;;;;;;;1.50;1.40;;;23.50;49.70;;;;;;5069369;28;20452;-84
2023/03/16 11:04:31;;;;;;;1.70;1.60;;;23.60;49.60;;;;;;5060047;28;20456;-84
2023/03/16 11:06:59;;;;;;;1.10;1.10;;;23.70;49.50;;;;;;5073074;28;20481;-84
2023/03/16 11:09:34;;;;;;;1.50;1.40;;;23.80;49.30;;;;;;5063614;28;20467;-84
2023/03/16 11:12:14;;;;;;;2.17;1.93;;;24.00;49.10;;;;;;5059373;28;21233;-81
2023/03/16 11:14:45;;;;;;;1.50;1.40;;;24.10;49.00;;;;;;5069557;28;20454;-81
2023/03/16 11:17:17;;;;;;;1.93;1.60;;;24.20;48.80;;;;;;5043702;28;20545;-81
2023/03/16 11:19:51;;;;;;;2.50;1.97;;;24.30;48.60;;;;;;5044096;28;20482;-81
2023/03/16 11:22:23;;;;;;;1.97;1.73;;;24.40;48.50;;;;;;5071575;28;20454;-81
2023/03/16 11:24:57;;;;;;;1.50;1.40;;;24.40;48.40;;;;;;5072412;28;20482;-83
2023/03/16 11:27:30;;;;;;;1.90;1.50;;;24.40;48.40;;;;;;5072876;28;20546;-84
2023/03/16 11:30:04;;;;;;;2.00;1.90;;;24.50;48.40;;;;;;5062217;28;20825;-83
2023/03/16 11:32:36;;;;;;;1.43;1.33;;;24.50;48.20;;;;;;5067016;28;20500;-84
2023/03/16 11:35:15;;;;;;;1.57;1.47;;;24.50;48.20;;;;;;5054242;28;20481;-81
2023/03/16 11:38:05;;;;;;;1.77;1.67;;;24.60;48.20;;;;;;5073199;28;20477;-81
2023/03/16 11:40:46;;;;;;;2.10;2.00;;;24.60;48.20;;;;;;5068824;28;20579;-85
2023/03/16 11:43:35;;;;;;;1.60;1.50;;;24.60;48.20;;;;;;5053589;28;20456;-85
2023/03/16 11:46:11;;;;;;;1.40;1.30;;;24.60;48.20;;;;;;5051685;28;20482;-84
2023/03/16 11:48:43;;;;;;;1.30;1.23;;;24.60;48.10;;;;;;5053625;28;20471;-85
2023/03/16 11:51:24;;;;;;;1.70;1.47;;;24.60;48.10;;;;;;5035836;28;20487;-81
2023/03/16 11:54:03;;;;;;;1.50;1.40;;;24.60;48.00;;;;;;5073752;28;20471;-79
2023/03/16 11:56:35;;;;;;;1.70;1.60;;;24.60;48.00;;;;;;5062016;28;20484;-82
2023/03/16 11:59:30;;;;;;;3.03;1.50;;;24.60;48.00;;;;;;5070784;28;20483;-81
2023/03/16 12:02:15;;;;;;;1.70;1.60;;;24.60;48.00;;;;;;5063677;28;20453;-83
2023/03/16 12:04:56;;;;;;;1.33;1.23;;;24.60;47.90;;;;;;5050417;28;20463;-83
2023/03/16 12:07:39;;;;;;;1.73;1.63;;;24.70;47.70;;;;;;5046170;28;20505;-83
2023/03/16 12:10:22;;;;;;;2.03;1.70;;;24.80;47.40;;;;;;5059622;28;20593;-83
2023/03/16 12:13:16;;;;;;;1.40;1.40;;;24.80;47.20;;;;;;5064720;28;20451;-83
2023/03/16 12:16:15;;;;;;;2.37;1.83;;;24.90;47.10;;;;;;5031135;28;21079;-82
2023/03/16 12:18:47;;;;;;;1.80;1.40;;;25.00;47.00;;;;;;5057195;28;20457;-81
2023/03/16 12:21:20;;;;;;;2.27;1.90;;;25.00;46.90;;;;;;5058178;28;20487;-84
2023/03/16 12:23:52;;;;;;;4.10;1.80;;;25.00;46.80;;;;;;5057706;28;20477;-81
2023/03/16 12:26:24;;;;;;;1.57;1.47;;;25.10;46.80;;;;;;5032609;28;20457;-81
2023/03/16 12:28:55;;;;;;;4.30;2.27;;;25.10;46.70;;;;;;5040950;28;20478;-81
2023/03/16 12:31:30;;;;;;;5.60;3.10;;;25.10;46.70;;;;;;5071578;28;21276;-81
2023/03/16 12:34:09;;;;;;;9.30;3.10;;;25.20;46.70;;;;;;5054655;28;20449;-81
2023/03/16 12:36:57;;;;;;;4.80;3.43;;;25.20;46.60;;;;;;5049693;28;20458;-81
2023/03/16 12:39:41;;;;;;;4.90;2.57;;;25.20;46.50;;;;;;5052189;28;21040;-81
2023/03/16 12:42:24;;;;;;;4.80;3.03;;;25.20;46.60;;;;;;5066560;28;21062;-83
2023/03/16 12:44:57;;;;;;;4.83;2.77;;;25.30;46.50;;;;;;5070463;28;20460;-82
2023/03/16 12:47:32;;;;;;;3.83;2.77;;;25.30;46.40;;;;;;5071940;28;20510;-82
2023/03/16 12:50:06;;;;;;;2.90;2.40;;;25.30;46.50;;;;;;5065166;28;20476;-82
2023/03/16 12:52:43;;;;;;;3.00;2.27;;;25.30;46.60;;;;;;5056027;28;20468;-82
2023/03/16 12:55:14;;;;;;;3.80;2.40;;;25.30;46.70;;;;;;5046509;28;20480;-82
2023/03/16 12:57:44;;;;;;;2.93;2.40;;;25.30;46.80;;;;;;5066970;28;20549;-82
2023/03/16 13:00:16;;;;;;;6.63;2.73;;;25.30;46.90;;;;;;5058805;28;20843;-82
2023/03/16 13:02:49;;;;;;;4.30;2.63;;;25.30;47.00;;;;;;5063418;28;21005;-81
2023/03/16 13:05:28;;;;;;;5.53;2.83;;;25.30;47.00;;;;;;5054663;28;20963;-82
2023/03/16 13:08:07;;;;;;;5.13;2.57;;;25.30;47.10;;;;;;5061978;28;20546;-82
2023/03/16 13:10:36;;;;;;;3.77;2.30;;;25.30;47.10;;;;;;5066881;28;21037;-80
2023/03/16 13:13:10;;;;;;;3.27;2.30;;;25.30;47.10;;;;;;5050091;28;20475;-80
2023/03/16 13:15:40;;;;;;;4.57;2.40;;;25.40;47.20;;;;;;5052937;28;20858;-80
2023/03/16 13:18:24;;;;;;;3.73;1.90;;;25.50;47.20;;;;;;5062895;28;20506;-81
2023/03/16 13:20:57;;;;;;;2.30;2.10;;;25.50;47.30;;;;;;5066099;28;20537;-83
2023/03/16 13:23:27;;;;;;;3.10;2.70;;;25.60;47.30;;;;;;5066770;28;20491;-85
2023/03/16 13:26:03;;;;;;;2.03;1.70;;;25.70;47.20;;;;;;5067084;28;20460;-81
2023/03/16 13:28:33;;;;;;;6.50;2.10;;;25.80;47.30;;;;;;5070351;28;20449;-81